createdAt,value
2023-02-19T00:00:50.889Z,958.27
2023-02-19T00:01:50.891Z,958.21
2023-02-19T00:02:50.897Z,958.32
2023-02-19T00:03:51.025Z,958.21
2023-02-19T00:04:50.865Z,958.34
2023-02-19T00:05:50.829Z,958.43
2023-02-19T00:06:50.854Z,958.35
2023-02-19T00:07:50.824Z,958.35
2023-02-19T00:08:50.885Z,958.44
2023-02-19T00:09:50.802Z,958.32
2023-02-19T00:10:50.781Z,958.39
2023-02-19T00:11:50.825Z,958.36
2023-02-19T00:12:50.857Z,958.47
2023-02-19T00:13:50.749Z,958.45
2023-02-19T00:14:50.736Z,958.45
2023-02-19T00:15:50.814Z,958.42
2023-02-19T00:16:50.721Z,958.43
2023-02-19T00:17:50.708Z,958.43
2023-02-19T00:18:50.696Z,958.51
2023-02-19T00:19:50.690Z,958.43
2023-02-19T00:20:50.671Z,958.38
2023-02-19T00:21:50.754Z,958.51
2023-02-19T00:22:50.682Z,958.42
2023-02-19T00:23:50.628Z,958.53
2023-02-19T00:24:50.625Z,958.55
2023-02-19T00:25:50.613Z,958.55
2023-02-19T00:26:50.644Z,958.48
2023-02-19T00:27:50.611Z,958.51
2023-02-19T00:28:50.611Z,958.63
2023-02-19T00:29:50.577Z,958.61
2023-02-19T00:30:50.779Z,958.64
2023-02-19T00:31:50.664Z,958.61
2023-02-19T00:32:50.532Z,958.60
2023-02-19T00:33:50.517Z,958.50
2023-02-19T00:34:50.510Z,958.64
2023-02-19T00:35:50.792Z,958.65
2023-02-19T00:36:50.539Z,958.68
2023-02-19T00:37:50.485Z,958.79
2023-02-19T00:38:50.480Z,958.67
2023-02-19T00:39:50.501Z,958.76
2023-02-19T00:40:50.531Z,958.66
2023-02-19T00:41:50.470Z,958.76
2023-02-19T00:42:50.439Z,958.72
2023-02-19T00:43:50.415Z,958.63
2023-02-19T00:44:50.420Z,958.86
2023-02-19T00:45:50.419Z,958.68
2023-02-19T00:46:50.410Z,958.73
2023-02-19T00:47:50.384Z,958.77
2023-02-19T00:48:50.372Z,958.77
2023-02-19T00:49:50.352Z,958.74
2023-02-19T00:50:50.416Z,958.86
2023-02-19T00:51:50.351Z,958.74
2023-02-19T00:52:50.328Z,958.81
2023-02-19T00:53:50.300Z,958.81
2023-02-19T00:54:50.292Z,958.83
2023-02-19T00:55:50.303Z,958.79
2023-02-19T00:56:50.341Z,958.84
2023-02-19T00:57:50.270Z,958.83
2023-02-19T00:58:50.269Z,958.88
2023-02-19T00:59:50.237Z,958.82
2023-02-19T01:00:50.293Z,958.85
2023-02-19T01:01:50.383Z,958.82
2023-02-19T01:02:50.204Z,958.83
2023-02-19T01:03:50.249Z,958.81
2023-02-19T01:04:50.284Z,958.85
2023-02-19T01:05:50.176Z,958.83
2023-02-19T01:06:50.189Z,958.83
2023-02-19T01:07:50.160Z,958.82
2023-02-19T01:08:50.171Z,958.75
2023-02-19T01:09:50.243Z,958.80
2023-02-19T01:10:50.130Z,958.77
2023-02-19T01:11:50.152Z,958.84
2023-02-19T01:12:50.106Z,958.83
2023-02-19T01:13:50.094Z,958.92
2023-02-19T01:14:50.099Z,958.75
2023-02-19T01:15:50.122Z,958.85
2023-02-19T01:16:50.082Z,958.86
2023-02-19T01:17:50.058Z,958.81
2023-02-19T01:18:50.043Z,958.86
2023-02-19T01:19:50.036Z,958.89
2023-02-19T01:20:50.078Z,958.91
2023-02-19T01:21:49.996Z,958.85
2023-02-19T01:22:50.793Z,958.88
2023-02-19T01:23:50.793Z,958.89
2023-02-19T01:24:49.971Z,958.92
2023-02-19T01:25:49.978Z,958.94
2023-02-19T01:26:49.963Z,958.86
2023-02-19T01:27:49.930Z,958.87
2023-02-19T01:28:49.991Z,958.92
2023-02-19T01:29:49.929Z,958.92
2023-02-19T01:30:49.914Z,958.87
2023-02-19T01:31:50.057Z,958.83
2023-02-19T01:32:49.879Z,958.83
2023-02-19T01:33:49.905Z,958.91
2023-02-19T01:34:49.898Z,958.86
2023-02-19T01:35:49.978Z,959.02
2023-02-19T01:36:49.861Z,959.01
2023-02-19T01:37:49.833Z,958.92
2023-02-19T01:38:49.847Z,958.94
2023-02-19T01:39:49.812Z,958.92
2023-02-19T01:40:49.804Z,958.90
2023-02-19T01:41:50.058Z,958.87
2023-02-19T01:42:49.768Z,958.82
2023-02-19T01:43:49.786Z,959.01
2023-02-19T01:44:49.777Z,958.87
2023-02-19T01:45:49.750Z,959.04
2023-02-19T01:46:49.779Z,958.86
2023-02-19T01:47:49.724Z,958.93
2023-02-19T01:48:49.721Z,958.89
2023-02-19T01:49:49.990Z,958.86
2023-02-19T01:50:49.678Z,958.95
2023-02-19T01:51:50.790Z,958.91
2023-02-19T01:52:49.683Z,958.99
2023-02-19T01:53:49.662Z,958.93
2023-02-19T01:54:49.649Z,959.02
2023-02-19T01:55:49.672Z,958.93
2023-02-19T01:56:49.623Z,958.89
2023-02-19T01:57:49.624Z,958.90
2023-02-19T01:58:49.612Z,958.91
2023-02-19T01:59:49.600Z,958.89
2023-02-19T02:00:49.653Z,958.92
2023-02-19T02:01:49.693Z,958.98
2023-02-19T02:02:49.577Z,959.10
2023-02-19T02:03:49.544Z,958.99
2023-02-19T02:04:49.575Z,959.06
2023-02-19T02:05:49.526Z,958.95
2023-02-19T02:06:49.582Z,959.10
2023-02-19T02:07:49.498Z,959.05
2023-02-19T02:08:49.505Z,959.04
2023-02-19T02:09:49.497Z,958.93
2023-02-19T02:10:49.485Z,958.97
2023-02-19T02:11:50.199Z,959.14
2023-02-19T02:12:50.395Z,959.15
2023-02-19T02:13:49.465Z,959.06
2023-02-19T02:14:50.201Z,959.07
2023-02-19T02:15:49.458Z,959.03
2023-02-19T02:16:49.408Z,959.07
2023-02-19T02:17:50.316Z,959.19
2023-02-19T02:18:49.393Z,959.14
2023-02-19T02:19:49.386Z,959.04
2023-02-19T02:20:49.376Z,959.06
2023-02-19T02:21:49.397Z,959.05
2023-02-19T02:22:49.350Z,959.02
2023-02-19T02:23:49.362Z,959.14
2023-02-19T02:24:49.406Z,958.92
2023-02-19T02:25:49.326Z,958.96
2023-02-19T02:26:49.318Z,959.10
2023-02-19T02:27:49.345Z,959.02
2023-02-19T02:28:49.288Z,959.01
2023-02-19T02:29:49.273Z,959.11
2023-02-19T02:30:49.281Z,959.05
2023-02-19T02:31:49.324Z,959.06
2023-02-19T02:32:49.820Z,959.00
2023-02-19T02:33:49.240Z,959.06
2023-02-19T02:34:49.248Z,959.15
2023-02-19T02:35:49.223Z,959.00
2023-02-19T02:36:49.210Z,958.97
2023-02-19T02:37:49.196Z,959.03
2023-02-19T02:38:49.195Z,959.03
2023-02-19T02:39:49.200Z,959.03
2023-02-19T02:40:49.177Z,958.92
2023-02-19T02:41:49.146Z,959.05
2023-02-19T02:42:49.133Z,958.99
2023-02-19T02:43:49.137Z,958.94
2023-02-19T02:44:49.144Z,958.97
2023-02-19T02:45:49.184Z,958.97
2023-02-19T02:46:49.098Z,959.01
2023-02-19T02:47:49.082Z,959.01
2023-02-19T02:48:49.086Z,958.97
2023-02-19T02:49:49.072Z,959.08
2023-02-19T02:50:49.074Z,959.18
2023-02-19T02:51:49.037Z,959.05
2023-02-19T02:52:49.045Z,959.02
2023-02-19T02:53:49.057Z,959.19
2023-02-19T02:54:49.029Z,959.17
2023-02-19T02:55:49.126Z,959.21
2023-02-19T02:56:48.990Z,959.20
2023-02-19T02:57:48.980Z,959.27
2023-02-19T02:58:48.968Z,959.24
2023-02-19T02:59:48.964Z,959.18
2023-02-19T03:00:48.990Z,959.18
2023-02-19T03:01:48.999Z,959.21
2023-02-19T03:02:48.909Z,959.15
2023-02-19T03:03:48.916Z,959.18
2023-02-19T03:04:48.901Z,959.25
2023-02-19T03:05:48.895Z,959.23
2023-02-19T03:06:48.890Z,959.20
2023-02-19T03:07:48.904Z,959.22
2023-02-19T03:08:48.865Z,959.23
2023-02-19T03:09:49.723Z,959.15
2023-02-19T03:10:48.843Z,959.17
2023-02-19T03:11:48.821Z,959.11
2023-02-19T03:12:48.865Z,959.09
2023-02-19T03:13:48.795Z,959.08
2023-02-19T03:14:48.798Z,959.16
2023-02-19T03:15:48.777Z,959.23
2023-02-19T03:16:48.851Z,959.26
2023-02-19T03:17:48.756Z,959.16
2023-02-19T03:18:48.788Z,959.17
2023-02-19T03:19:48.798Z,959.18
2023-02-19T03:20:48.737Z,959.27
2023-02-19T03:21:48.713Z,959.16
2023-02-19T03:22:48.695Z,959.24
2023-02-19T03:23:48.689Z,959.27
2023-02-19T03:24:48.672Z,959.27
2023-02-19T03:25:48.688Z,959.23
2023-02-19T03:26:48.657Z,959.16
2023-02-19T03:27:48.652Z,959.28
2023-02-19T03:28:48.636Z,959.26
2023-02-19T03:29:48.677Z,959.20
2023-02-19T03:30:48.648Z,959.22
2023-02-19T03:31:48.743Z,959.17
2023-02-19T03:32:48.605Z,959.22
2023-02-19T03:33:48.588Z,959.26
2023-02-19T03:34:48.603Z,959.25
2023-02-19T03:35:48.552Z,959.32
2023-02-19T03:36:48.544Z,959.31
2023-02-19T03:37:48.545Z,959.26
2023-02-19T03:38:48.533Z,959.32
2023-02-19T03:39:48.546Z,959.45
2023-02-19T03:40:48.498Z,959.38
2023-02-19T03:41:48.511Z,959.42
2023-02-19T03:42:48.481Z,959.40
2023-02-19T03:43:48.476Z,959.53
2023-02-19T03:44:48.495Z,959.44
2023-02-19T03:45:48.476Z,959.54
2023-02-19T03:46:48.459Z,959.57
2023-02-19T03:47:48.424Z,959.54
2023-02-19T03:48:48.416Z,959.57
2023-02-19T03:49:49.174Z,959.43
2023-02-19T03:50:48.433Z,959.50
2023-02-19T03:51:48.385Z,959.53
2023-02-19T03:52:48.390Z,959.43
2023-02-19T03:53:48.365Z,959.51
2023-02-19T03:54:48.372Z,959.59
2023-02-19T03:55:48.337Z,959.48
2023-02-19T03:56:48.367Z,959.59
2023-02-19T03:57:48.318Z,959.61
2023-02-19T03:58:48.320Z,959.56
2023-02-19T03:59:48.299Z,959.55
2023-02-19T04:00:48.288Z,959.68
2023-02-19T04:01:48.295Z,959.57
2023-02-19T04:02:48.267Z,959.57
2023-02-19T04:03:48.258Z,959.59
2023-02-19T04:04:48.268Z,959.57
2023-02-19T04:05:48.237Z,959.56
2023-02-19T04:06:48.255Z,959.51
2023-02-19T04:07:48.223Z,959.58
2023-02-19T04:08:48.205Z,959.58
2023-02-19T04:09:48.205Z,959.58
2023-02-19T04:10:48.218Z,959.61
2023-02-19T04:11:48.165Z,959.63
2023-02-19T04:12:48.173Z,959.55
2023-02-19T04:13:48.156Z,959.68
2023-02-19T04:14:48.153Z,959.64
2023-02-19T04:15:48.162Z,959.64
2023-02-19T04:16:48.156Z,959.66
2023-02-19T04:17:48.121Z,959.58
2023-02-19T04:18:48.111Z,959.58
2023-02-19T04:19:48.092Z,959.63
2023-02-19T04:20:48.108Z,959.54
2023-02-19T04:21:48.077Z,959.57
2023-02-19T04:22:48.064Z,959.60
2023-02-19T04:23:48.062Z,959.64
2023-02-19T04:24:48.049Z,959.55
2023-02-19T04:25:48.054Z,959.60
2023-02-19T04:26:48.022Z,959.59
2023-02-19T04:27:48.008Z,959.65
2023-02-19T04:28:48.001Z,959.58
2023-02-19T04:29:47.995Z,959.71
2023-02-19T04:30:48.009Z,959.80
2023-02-19T04:31:47.997Z,959.72
2023-02-19T04:32:47.949Z,959.76
2023-02-19T04:33:47.937Z,959.76
2023-02-19T04:34:47.938Z,959.88
2023-02-19T04:35:47.920Z,959.83
2023-02-19T04:36:47.897Z,959.81
2023-02-19T04:37:47.914Z,959.87
2023-02-19T04:38:47.900Z,959.88
2023-02-19T04:39:47.884Z,959.90
2023-02-19T04:40:47.885Z,959.88
2023-02-19T04:41:47.838Z,959.86
2023-02-19T04:42:47.927Z,959.82
2023-02-19T04:43:47.840Z,959.89
2023-02-19T04:44:47.808Z,959.89
2023-02-19T04:45:47.832Z,959.80
2023-02-19T04:46:47.794Z,959.77
2023-02-19T04:47:47.809Z,959.87
2023-02-19T04:48:47.773Z,959.75
2023-02-19T04:49:47.772Z,959.83
2023-02-19T04:50:47.783Z,959.80
2023-02-19T04:51:47.750Z,959.76
2023-02-19T04:52:47.715Z,959.72
2023-02-19T04:53:47.713Z,959.78
2023-02-19T04:54:47.721Z,959.80
2023-02-19T04:55:47.721Z,959.75
2023-02-19T04:56:47.689Z,959.80
2023-02-19T04:57:47.682Z,959.88
2023-02-19T04:58:47.660Z,959.81
2023-02-19T04:59:47.663Z,959.84
2023-02-19T05:00:47.669Z,959.86
2023-02-19T05:01:47.753Z,959.79
2023-02-19T05:02:47.614Z,959.79
2023-02-19T05:03:47.622Z,959.80
2023-02-19T05:04:47.587Z,959.81
2023-02-19T05:05:47.942Z,959.96
2023-02-19T05:06:47.574Z,959.94
2023-02-19T05:07:47.609Z,959.95
2023-02-19T05:08:47.563Z,959.90
2023-02-19T05:09:47.586Z,960.05
2023-02-19T05:10:47.622Z,959.90
2023-02-19T05:11:47.520Z,959.90
2023-02-19T05:12:47.519Z,959.87
2023-02-19T05:13:47.567Z,959.96
2023-02-19T05:14:47.487Z,959.94
2023-02-19T05:15:47.576Z,959.94
2023-02-19T05:16:47.490Z,959.89
2023-02-19T05:17:47.472Z,959.93
2023-02-19T05:18:47.455Z,959.92
2023-02-19T05:19:47.448Z,960.01
2023-02-19T05:20:47.431Z,959.98
2023-02-19T05:21:47.453Z,959.98
2023-02-19T05:22:47.425Z,960.04
2023-02-19T05:23:47.391Z,960.08
2023-02-19T05:24:47.381Z,960.14
2023-02-19T05:25:47.372Z,960.28
2023-02-19T05:26:47.356Z,960.23
2023-02-19T05:27:47.377Z,960.15
2023-02-19T05:28:47.329Z,960.08
2023-02-19T05:29:47.325Z,960.13
2023-02-19T05:30:47.376Z,960.18
2023-02-19T05:31:47.483Z,960.12
2023-02-19T05:32:47.316Z,960.26
2023-02-19T05:33:47.387Z,960.19
2023-02-19T05:34:47.272Z,960.22
2023-02-19T05:35:47.269Z,960.26
2023-02-19T05:36:47.274Z,960.23
2023-02-19T05:37:47.238Z,960.23
2023-02-19T05:38:47.251Z,960.32
2023-02-19T05:39:47.225Z,960.28
2023-02-19T05:40:47.224Z,960.29
2023-02-19T05:41:47.209Z,960.38
2023-02-19T05:42:47.220Z,960.28
2023-02-19T05:43:47.186Z,960.35
2023-02-19T05:44:47.171Z,960.25
2023-02-19T05:45:47.152Z,960.34
2023-02-19T05:46:47.156Z,960.36
2023-02-19T05:47:47.155Z,960.42
2023-02-19T05:48:47.147Z,960.45
2023-02-19T05:49:47.114Z,960.43
2023-02-19T05:50:47.132Z,960.46
2023-02-19T05:51:47.095Z,960.46
2023-02-19T05:52:47.096Z,960.37
2023-02-19T05:53:47.140Z,960.44
2023-02-19T05:54:47.075Z,960.45
2023-02-19T05:55:47.064Z,960.44
2023-02-19T05:56:47.043Z,960.49
2023-02-19T05:57:47.024Z,960.42
2023-02-19T05:58:47.010Z,960.50
2023-02-19T05:59:47.037Z,960.50
2023-02-19T06:00:46.999Z,960.42
2023-02-19T06:01:46.989Z,960.46
2023-02-19T06:02:46.991Z,960.46
2023-02-19T06:03:47.021Z,960.48
2023-02-19T06:04:46.995Z,960.45
2023-02-19T06:05:46.942Z,960.46
2023-02-19T06:06:46.936Z,960.51
2023-02-19T06:07:46.913Z,960.48
2023-02-19T06:08:46.929Z,960.52
2023-02-19T06:09:46.914Z,960.49
2023-02-19T06:10:46.907Z,960.41
2023-02-19T06:11:46.886Z,960.46
2023-02-19T06:12:46.867Z,960.46
2023-02-19T06:13:46.865Z,960.36
2023-02-19T06:14:46.871Z,960.45
2023-02-19T06:15:46.854Z,960.41
2023-02-19T06:16:46.865Z,960.41
2023-02-19T06:17:46.827Z,960.48
2023-02-19T06:18:46.916Z,960.51
2023-02-19T06:19:46.801Z,960.58
2023-02-19T06:20:46.788Z,960.53
2023-02-19T06:21:46.797Z,960.60
2023-02-19T06:22:46.757Z,960.72
2023-02-19T06:23:46.759Z,960.62
2023-02-19T06:24:46.727Z,960.68
2023-02-19T06:25:46.723Z,960.67
2023-02-19T06:26:46.734Z,960.63
2023-02-19T06:27:46.702Z,960.64
2023-02-19T06:28:46.695Z,960.66
2023-02-19T06:29:46.689Z,960.70
2023-02-19T06:30:46.675Z,960.67
2023-02-19T06:31:46.764Z,960.71
2023-02-19T06:32:46.687Z,960.70
2023-02-19T06:33:46.663Z,960.75
2023-02-19T06:34:47.365Z,960.63
2023-02-19T06:35:46.620Z,960.74
2023-02-19T06:36:46.632Z,960.69
2023-02-19T06:37:46.601Z,960.70
2023-02-19T06:38:46.631Z,960.75
2023-02-19T06:39:46.577Z,960.81
2023-02-19T06:40:46.577Z,960.63
2023-02-19T06:41:46.591Z,960.72
2023-02-19T06:42:46.554Z,960.69
2023-02-19T06:43:46.685Z,960.68
2023-02-19T06:44:46.553Z,960.70
2023-02-19T06:45:46.529Z,960.60
2023-02-19T06:46:46.611Z,960.75
2023-02-19T06:47:46.527Z,960.66
2023-02-19T06:48:46.493Z,960.67
2023-02-19T06:49:46.500Z,960.78
2023-02-19T06:50:46.464Z,960.73
2023-02-19T06:51:46.488Z,960.65
2023-02-19T06:52:46.463Z,960.70
2023-02-19T06:53:46.461Z,960.78
2023-02-19T06:54:46.414Z,960.65
2023-02-19T06:55:46.416Z,960.72
2023-02-19T06:56:47.216Z,960.67
2023-02-19T06:57:46.389Z,960.75
2023-02-19T06:58:46.401Z,960.78
2023-02-19T06:59:46.451Z,960.83
2023-02-19T07:00:46.413Z,960.80
2023-02-19T07:01:46.424Z,960.85
2023-02-19T07:02:46.339Z,960.81
2023-02-19T07:03:46.339Z,960.86
2023-02-19T07:04:46.318Z,960.85
2023-02-19T07:05:46.372Z,960.81
2023-02-19T07:06:46.299Z,960.79
2023-02-19T07:07:46.305Z,960.85
2023-02-19T07:08:46.279Z,960.90
2023-02-19T07:09:46.262Z,960.90
2023-02-19T07:10:46.264Z,960.92
2023-02-19T07:11:46.283Z,960.83
2023-02-19T07:12:46.244Z,960.84
2023-02-19T07:13:46.217Z,960.86
2023-02-19T07:14:46.205Z,960.83
2023-02-19T07:15:46.195Z,960.79
2023-02-19T07:16:46.207Z,960.86
2023-02-19T07:17:46.165Z,960.88
2023-02-19T07:18:46.200Z,960.88
2023-02-19T07:19:46.199Z,960.87
2023-02-19T07:20:46.154Z,960.85
2023-02-19T07:21:46.407Z,960.88
2023-02-19T07:22:46.309Z,960.81
2023-02-19T07:23:46.143Z,960.83
2023-02-19T07:24:47.884Z,960.77
2023-02-19T07:25:46.150Z,960.86
2023-02-19T07:26:46.078Z,960.72
2023-02-19T07:27:46.062Z,960.79
2023-02-19T07:28:46.042Z,960.91
2023-02-19T07:29:46.082Z,960.91
2023-02-19T07:30:46.895Z,960.88
2023-02-19T07:31:46.069Z,960.83
2023-02-19T07:32:46.003Z,960.87
2023-02-19T07:33:45.997Z,960.81
2023-02-19T07:34:45.983Z,960.91
2023-02-19T07:35:45.975Z,960.81
2023-02-19T07:36:45.978Z,960.85
2023-02-19T07:37:45.950Z,960.84
2023-02-19T07:38:46.623Z,960.86
2023-02-19T07:39:45.926Z,960.91
2023-02-19T07:40:45.937Z,960.90
2023-02-19T07:41:45.920Z,960.93
2023-02-19T07:42:45.910Z,960.91
2023-02-19T07:43:45.906Z,960.91
2023-02-19T07:44:45.916Z,960.92
2023-02-19T07:45:45.922Z,960.97
2023-02-19T07:46:45.862Z,960.89
2023-02-19T07:47:45.847Z,960.91
2023-02-19T07:48:45.877Z,961.01
2023-02-19T07:49:45.823Z,960.99
2023-02-19T07:50:45.835Z,960.98
2023-02-19T07:51:45.824Z,960.95
2023-02-19T07:52:45.807Z,960.87
2023-02-19T07:53:45.779Z,960.94
2023-02-19T07:54:45.771Z,961.00
2023-02-19T07:55:45.763Z,960.92
2023-02-19T07:56:45.776Z,961.00
2023-02-19T07:57:45.736Z,960.93
2023-02-19T07:58:45.747Z,960.98
2023-02-19T07:59:45.779Z,960.97
2023-02-19T08:00:45.793Z,960.99
2023-02-19T08:01:45.732Z,960.94
2023-02-19T08:02:45.683Z,960.93
2023-02-19T08:03:45.681Z,960.90
2023-02-19T08:04:45.696Z,960.92
2023-02-19T08:05:45.672Z,960.94
2023-02-19T08:06:45.650Z,960.88
2023-02-19T08:07:45.649Z,960.90
2023-02-19T08:08:45.629Z,961.04
2023-02-19T08:09:45.640Z,960.90
2023-02-19T08:10:45.593Z,961.03
2023-02-19T08:11:45.608Z,961.05
2023-02-19T08:12:45.583Z,960.98
2023-02-19T08:13:46.663Z,961.01
2023-02-19T08:14:45.559Z,961.01
2023-02-19T08:15:45.563Z,961.07
2023-02-19T08:16:45.549Z,960.99
2023-02-19T08:17:45.705Z,960.97
2023-02-19T08:18:45.568Z,961.17
2023-02-19T08:19:45.520Z,961.06
2023-02-19T08:20:45.492Z,961.06
2023-02-19T08:21:45.546Z,960.96
2023-02-19T08:22:45.587Z,961.01
2023-02-19T08:23:45.466Z,961.14
2023-02-19T08:24:45.616Z,961.05
2023-02-19T08:25:45.453Z,961.03
2023-02-19T08:26:45.430Z,961.03
2023-02-19T08:27:46.787Z,961.11
2023-02-19T08:28:45.412Z,961.01
2023-02-19T08:29:45.406Z,961.12
2023-02-19T08:30:45.583Z,961.07
2023-02-19T08:31:45.607Z,960.97
2023-02-19T08:32:45.365Z,961.02
2023-02-19T08:33:45.363Z,960.98
2023-02-19T08:34:45.363Z,961.10
2023-02-19T08:35:45.335Z,961.06
2023-02-19T08:36:45.373Z,960.94
2023-02-19T08:37:45.306Z,961.04
2023-02-19T08:38:45.986Z,960.93
2023-02-19T08:39:45.303Z,960.86
2023-02-19T08:40:45.280Z,960.89
2023-02-19T08:41:45.278Z,960.98
2023-02-19T08:42:45.256Z,960.88
2023-02-19T08:43:45.241Z,960.99
2023-02-19T08:44:45.266Z,961.03
2023-02-19T08:45:45.293Z,961.06
2023-02-19T08:46:45.222Z,961.03
2023-02-19T08:47:45.186Z,961.09
2023-02-19T08:48:45.207Z,961.04
2023-02-19T08:49:45.334Z,961.05
2023-02-19T08:50:45.155Z,961.07
2023-02-19T08:51:45.154Z,961.22
2023-02-19T08:52:45.147Z,961.15
2023-02-19T08:53:45.138Z,961.06
2023-02-19T08:54:45.143Z,961.17
2023-02-19T08:55:45.166Z,961.17
2023-02-19T08:56:45.086Z,961.21
2023-02-19T08:57:45.145Z,961.11
2023-02-19T08:58:45.083Z,961.11
2023-02-19T08:59:45.060Z,961.15
2023-02-19T09:00:45.081Z,961.18
2023-02-19T09:01:45.081Z,961.13
2023-02-19T09:02:45.056Z,961.01
2023-02-19T09:03:45.035Z,961.07
2023-02-19T09:04:45.028Z,961.04
2023-02-19T09:05:45.033Z,961.05
2023-02-19T09:06:44.988Z,961.04
2023-02-19T09:07:44.982Z,960.99
2023-02-19T09:08:44.972Z,961.01
2023-02-19T09:09:44.944Z,961.00
2023-02-19T09:10:44.966Z,961.01
2023-02-19T09:11:45.693Z,961.11
2023-02-19T09:12:44.951Z,961.10
2023-02-19T09:13:44.911Z,961.02
2023-02-19T09:14:44.894Z,961.16
2023-02-19T09:15:44.933Z,961.22
2023-02-19T09:16:44.925Z,961.17
2023-02-19T09:17:44.893Z,961.26
2023-02-19T09:18:44.849Z,961.16
2023-02-19T09:19:44.861Z,961.22
2023-02-19T09:20:44.835Z,961.30
2023-02-19T09:21:44.879Z,961.29
2023-02-19T09:22:44.814Z,961.25
2023-02-19T09:23:44.797Z,961.30
2023-02-19T09:24:44.793Z,961.31
2023-02-19T09:25:44.794Z,961.39
2023-02-19T09:26:44.772Z,961.39
2023-02-19T09:27:44.807Z,961.34
2023-02-19T09:28:44.766Z,961.45
2023-02-19T09:29:44.744Z,961.44
2023-02-19T09:30:44.769Z,961.51
2023-02-19T09:31:44.904Z,961.47
2023-02-19T09:32:44.803Z,961.55
2023-02-19T09:33:44.717Z,961.57
2023-02-19T09:34:44.685Z,961.51
2023-02-19T09:35:44.727Z,961.58
2023-02-19T09:36:44.728Z,961.39
2023-02-19T09:37:44.656Z,961.52
2023-02-19T09:38:44.639Z,961.50
2023-02-19T09:39:44.634Z,961.52
2023-02-19T09:40:44.637Z,961.57
2023-02-19T09:41:44.608Z,961.55
2023-02-19T09:42:44.644Z,961.63
2023-02-19T09:43:44.604Z,961.64
2023-02-19T09:44:44.586Z,961.68
2023-02-19T09:45:44.552Z,961.70
2023-02-19T09:46:44.625Z,961.69
2023-02-19T09:47:44.556Z,961.77
2023-02-19T09:48:44.566Z,961.72
2023-02-19T09:49:44.537Z,961.68
2023-02-19T09:50:44.526Z,961.68
2023-02-19T09:51:44.534Z,961.68
2023-02-19T09:52:44.493Z,961.68
2023-02-19T09:53:44.506Z,961.70
2023-02-19T09:54:44.545Z,961.61
2023-02-19T09:55:44.502Z,961.69
2023-02-19T09:56:44.503Z,961.79
2023-02-19T09:57:44.451Z,961.81
2023-02-19T09:58:45.183Z,961.68
2023-02-19T09:59:44.438Z,961.78
2023-02-19T10:00:44.473Z,961.72
2023-02-19T10:01:44.394Z,961.75
2023-02-19T10:02:44.438Z,961.62
2023-02-19T10:03:44.377Z,961.66
2023-02-19T10:04:44.445Z,961.68
2023-02-19T10:05:44.359Z,961.71
2023-02-19T10:06:44.328Z,961.56
2023-02-19T10:07:44.382Z,961.68
2023-02-19T10:09:20.146Z,961.68
2023-02-19T10:09:44.298Z,961.65
2023-02-19T10:10:44.289Z,961.71
2023-02-19T10:11:44.292Z,961.68
2023-02-19T10:12:44.295Z,961.68
2023-02-19T10:13:44.265Z,961.71
2023-02-19T10:14:44.265Z,961.64
2023-02-19T10:15:44.293Z,961.70
2023-02-19T10:16:44.246Z,961.79
2023-02-19T10:17:44.298Z,961.68
2023-02-19T10:18:44.259Z,961.81
2023-02-19T10:19:44.199Z,961.81
2023-02-19T10:20:44.171Z,961.87
2023-02-19T10:21:44.202Z,961.79
2023-02-19T10:22:44.209Z,961.75
2023-02-19T10:24:58.923Z,961.68
2023-02-19T10:25:59.900Z,961.73
2023-02-19T10:26:59.870Z,961.67
2023-02-19T10:27:59.858Z,961.64
2023-02-19T10:28:59.882Z,961.63
2023-02-19T10:29:59.944Z,961.79
2023-02-19T10:30:59.869Z,961.73
2023-02-19T10:32:00.060Z,961.78
2023-02-19T10:32:59.823Z,961.83
2023-02-19T10:33:59.823Z,961.93
2023-02-19T10:34:59.791Z,961.93
2023-02-19T10:35:59.785Z,961.98
2023-02-19T10:36:59.776Z,961.95
2023-02-19T10:37:59.768Z,961.91
2023-02-19T10:38:59.787Z,961.93
2023-02-19T10:39:59.728Z,961.93
2023-02-19T10:40:59.715Z,961.91
2023-02-19T10:41:59.722Z,961.95
2023-02-19T10:42:59.706Z,961.97
2023-02-19T10:43:59.710Z,962.11
2023-02-19T10:44:59.715Z,961.91
2023-02-19T10:46:00.490Z,961.96
2023-02-19T10:46:59.678Z,962.05
2023-02-19T10:47:59.652Z,962.06
2023-02-19T10:49:00.400Z,961.96
2023-02-19T10:50:00.813Z,961.95
2023-02-19T10:50:59.647Z,962.00
2023-02-19T10:52:00.496Z,962.06
2023-02-19T10:52:59.651Z,962.02
2023-02-19T10:53:59.646Z,961.93
2023-02-19T10:54:59.667Z,961.86
2023-02-19T10:55:59.564Z,961.88
2023-02-19T10:56:59.562Z,962.01
2023-02-19T10:58:00.500Z,961.97
2023-02-19T10:58:59.537Z,962.03
2023-02-19T10:59:59.592Z,962.08
2023-02-19T11:00:59.532Z,962.01
2023-02-19T11:01:59.518Z,962.12
2023-02-19T11:03:00.319Z,962.07
2023-02-19T11:03:59.548Z,962.09
2023-02-19T11:04:59.546Z,962.13
2023-02-19T11:05:59.552Z,962.04
2023-02-19T11:06:59.447Z,962.13
2023-02-19T11:07:59.440Z,962.11
2023-02-19T11:08:59.420Z,962.07
2023-02-19T11:09:59.456Z,962.14
2023-02-19T11:10:59.388Z,962.18
2023-02-19T11:12:01.922Z,962.06
2023-02-19T11:12:59.375Z,962.10
2023-02-19T11:13:59.367Z,962.10
2023-02-19T11:14:59.357Z,962.12
2023-02-19T11:15:59.371Z,962.16
2023-02-19T11:16:59.331Z,962.09
2023-02-19T11:17:59.313Z,962.06
2023-02-19T11:19:00.276Z,962.06
2023-02-19T11:19:59.298Z,962.21
2023-02-19T11:20:59.301Z,962.16
2023-02-19T11:21:59.316Z,962.03
2023-02-19T11:22:59.337Z,962.10
2023-02-19T11:23:59.243Z,962.10
2023-02-19T11:24:59.578Z,962.05
2023-02-19T11:25:59.258Z,962.05
2023-02-19T11:26:59.224Z,962.00
2023-02-19T11:27:59.212Z,962.09
2023-02-19T11:28:59.211Z,962.05
2023-02-19T11:29:59.249Z,962.03
2023-02-19T11:30:59.249Z,962.07
2023-02-19T11:31:59.346Z,962.09
2023-02-19T11:32:59.173Z,962.20
2023-02-19T11:33:59.147Z,962.10
2023-02-19T11:34:59.135Z,962.08
2023-02-19T11:35:59.129Z,962.05
2023-02-19T11:36:59.142Z,961.99
2023-02-19T11:37:59.166Z,962.09
2023-02-19T11:38:59.099Z,962.04
2023-02-19T11:39:59.084Z,962.01
2023-02-19T11:40:59.157Z,962.16
2023-02-19T11:41:59.142Z,962.21
2023-02-19T11:42:59.040Z,962.08
2023-02-19T11:43:59.034Z,962.27
2023-02-19T11:44:59.024Z,962.02
2023-02-19T11:45:59.091Z,962.01
2023-02-19T11:46:59.045Z,962.08
2023-02-19T11:47:59.015Z,961.98
2023-02-19T11:48:58.998Z,962.06
2023-02-19T11:49:59.025Z,962.06
2023-02-19T11:50:59.040Z,962.15
2023-02-19T11:51:58.964Z,962.11
2023-02-19T11:52:58.963Z,962.17
2023-02-19T11:53:58.926Z,962.16
2023-02-19T11:54:58.920Z,962.17
2023-02-19T11:55:58.916Z,962.21
2023-02-19T11:56:58.915Z,962.29
2023-02-19T11:57:58.904Z,962.23
2023-02-19T11:59:00.660Z,962.20
2023-02-19T11:59:58.866Z,962.19
2023-02-19T12:00:58.854Z,962.33
2023-02-19T12:01:58.956Z,962.25
2023-02-19T12:02:58.919Z,962.24
2023-02-19T12:04:00.475Z,962.29
2023-02-19T12:04:58.819Z,962.29
2023-02-19T12:05:58.844Z,962.30
2023-02-19T12:06:58.846Z,962.29
2023-02-19T12:07:58.776Z,962.39
2023-02-19T12:08:58.756Z,962.38
2023-02-19T12:09:58.771Z,962.33
2023-02-19T12:10:58.745Z,962.38
2023-02-19T12:11:58.731Z,962.43
2023-02-19T12:12:58.708Z,962.43
2023-02-19T12:13:58.709Z,962.47
2023-02-19T12:14:58.728Z,962.45
2023-02-19T12:15:58.701Z,962.44
2023-02-19T12:16:58.668Z,962.46
2023-02-19T12:17:58.661Z,962.53
2023-02-19T12:18:58.661Z,962.51
2023-02-19T12:19:58.698Z,962.56
2023-02-19T12:20:58.628Z,962.50
2023-02-19T12:21:58.620Z,962.57
2023-02-19T12:22:58.611Z,962.55
2023-02-19T12:23:58.578Z,962.47
2023-02-19T12:24:58.613Z,962.49
2023-02-19T12:25:58.589Z,962.55
2023-02-19T12:26:58.564Z,962.48
2023-02-19T12:27:58.546Z,962.55
2023-02-19T12:28:58.669Z,962.54
2023-02-19T12:29:58.548Z,962.47